createdAt,value
2023-04-07T00:00:41.872Z,4.22
2023-04-07T00:06:45.387Z,5.70
2023-04-07T00:12:50.144Z,5.63
2023-04-07T00:18:53.780Z,4.32
2023-04-07T00:24:57.218Z,3.20
2023-04-07T00:31:02.343Z,5.00
2023-04-07T00:37:06.504Z,5.47
2023-04-07T00:43:09.871Z,6.45
2023-04-07T00:49:14.736Z,6.47
2023-04-07T00:55:18.159Z,6.97
2023-04-07T01:01:24.725Z,8.63
2023-04-07T01:07:34.740Z,6.25
2023-04-07T01:13:38.949Z,4.38
2023-04-07T01:19:45.234Z,4.72
2023-04-07T01:26:02.565Z,3.13
2023-04-07T01:32:08.478Z,4.65
2023-04-07T01:38:12.920Z,3.78
2023-04-07T01:44:16.991Z,3.42
2023-04-07T01:50:22.997Z,2.95
2023-04-07T01:56:26.463Z,3.05
2023-04-07T02:02:30.519Z,4.22
2023-04-07T02:08:35.554Z,4.43
2023-04-07T02:14:39.601Z,5.43
2023-04-07T02:20:44.523Z,4.22
2023-04-07T02:26:49.338Z,5.70
2023-04-07T02:32:52.827Z,5.50
2023-04-07T02:38:56.848Z,5.57
2023-04-07T02:45:02.049Z,8.80
2023-04-07T02:51:05.463Z,9.45
2023-04-07T02:57:08.866Z,9.32
2023-04-07T03:03:14.308Z,11.27
2023-04-07T03:09:18.180Z,9.60
2023-04-07T03:15:21.591Z,14.50
2023-04-07T03:21:26.649Z,15.30
2023-04-07T03:27:30.031Z,17.05
2023-04-07T03:33:33.518Z,14.15
2023-04-07T03:39:39.428Z,15.65
2023-04-07T03:45:42.966Z,12.20
2023-04-07T03:51:46.661Z,13.73
2023-04-07T03:57:51.767Z,17.08
2023-04-07T04:03:55.341Z,12.50
2023-04-07T04:09:59.247Z,13.70
2023-04-07T04:16:04.176Z,13.20
2023-04-07T04:22:07.749Z,11.27
2023-04-07T04:28:11.596Z,13.70
2023-04-07T04:34:16.410Z,11.57
2023-04-07T04:40:19.998Z,12.50
2023-04-07T04:46:23.537Z,12.10
2023-04-07T04:52:28.869Z,12.13
2023-04-07T04:58:32.435Z,11.13
2023-04-07T05:04:36.818Z,9.40
2023-04-07T05:10:42.081Z,14.48
2023-04-07T05:16:45.448Z,9.65
2023-04-07T05:22:49.017Z,10.25
2023-04-07T05:28:53.911Z,9.52
2023-04-07T05:34:57.574Z,8.63
2023-04-07T05:41:01.353Z,8.90
2023-04-07T05:47:09.108Z,7.97
2023-04-07T05:53:12.657Z,9.63
2023-04-07T05:59:16.039Z,7.20
2023-04-07T06:05:21.076Z,6.80
2023-04-07T06:11:24.634Z,8.23
2023-04-07T06:17:28.049Z,8.90
2023-04-07T06:23:32.854Z,7.70
2023-04-07T06:29:36.740Z,11.88
2023-04-07T06:35:41.388Z,8.82
2023-04-07T06:41:47.081Z,10.80
2023-04-07T06:47:50.664Z,10.13
2023-04-07T06:53:54.090Z,9.30
2023-04-07T06:59:58.851Z,9.90
2023-04-07T07:06:02.485Z,13.13
2023-04-07T07:12:06.654Z,14.73
2023-04-07T07:18:11.493Z,9.57
2023-04-07T07:24:14.984Z,12.43
2023-04-07T07:30:18.429Z,12.30
2023-04-07T07:36:23.242Z,9.65
2023-04-07T07:42:27.170Z,9.82
2023-04-07T07:48:30.800Z,9.73
2023-04-07T07:54:35.657Z,10.98
2023-04-07T08:00:39.041Z,9.02
2023-04-07T08:06:42.912Z,10.55
2023-04-07T08:12:47.733Z,9.07
2023-04-07T08:18:51.834Z,11.57
2023-04-07T08:24:55.266Z,7.50
2023-04-07T08:31:00.324Z,4.95
2023-04-07T08:37:03.735Z,5.80
2023-04-07T08:43:10.662Z,4.60
2023-04-07T08:49:15.715Z,3.97
2023-04-07T08:55:19.403Z,3.80
2023-04-07T09:01:23.277Z,5.47
2023-04-07T09:07:28.347Z,2.50
2023-04-07T09:13:33.490Z,2.78
2023-04-07T09:19:37.048Z,3.42
2023-04-07T09:25:41.871Z,2.55
2023-04-07T09:31:46.841Z,4.80
2023-04-07T09:38:02.735Z,4.45
2023-04-07T09:44:07.617Z,5.03
2023-04-07T09:50:11.637Z,4.65
2023-04-07T09:56:16.295Z,5.75
2023-04-07T10:02:21.137Z,8.13
2023-04-07T10:08:24.901Z,2.67
2023-04-07T10:14:29.161Z,2.17
2023-04-07T10:20:34.123Z,1.45
2023-04-07T10:26:40.633Z,1.95
2023-04-07T10:32:48.448Z,1.42
2023-04-07T10:39:10.491Z,2.40
2023-04-07T10:45:15.842Z,2.13
2023-04-07T10:51:19.668Z,4.00
2023-04-07T10:57:23.756Z,3.55
2023-04-07T11:03:29.884Z,6.32
2023-04-07T11:09:33.793Z,3.90
2023-04-07T11:15:40.310Z,2.33
2023-04-07T11:21:47.127Z,2.95
2023-04-07T11:27:50.807Z,3.15
2023-04-07T11:33:55.653Z,3.60
2023-04-07T11:40:00.949Z,5.25
2023-04-07T11:46:08.651Z,5.55
2023-04-07T11:52:12.104Z,3.30
2023-04-07T11:58:16.989Z,3.22
2023-04-07T12:04:21.149Z,5.95
2023-04-07T12:10:26.725Z,4.47
2023-04-07T12:16:31.636Z,3.03
2023-04-07T12:22:35.110Z,3.22
2023-04-07T12:28:38.875Z,4.32
2023-04-07T12:34:44.057Z,2.83
2023-04-07T12:40:47.724Z,3.42
2023-04-07T12:46:51.517Z,3.60
2023-04-07T12:52:56.708Z,4.47
2023-04-07T12:59:00.144Z,2.80
2023-04-07T13:05:03.695Z,4.25
2023-04-07T13:11:08.725Z,3.55
2023-04-07T13:17:12.263Z,5.47
2023-04-07T13:23:15.785Z,5.05
2023-04-07T13:29:20.665Z,5.85
2023-04-07T13:35:24.093Z,2.30
2023-04-07T13:41:27.765Z,4.13
2023-04-07T13:47:34.706Z,6.07
2023-04-07T13:53:38.169Z,3.40
2023-04-07T13:59:41.610Z,1.98
2023-04-07T14:05:46.640Z,4.10
2023-04-07T14:11:50.126Z,3.20
2023-04-07T14:17:53.702Z,2.97
2023-04-07T14:23:58.640Z,3.95
2023-04-07T14:30:02.809Z,2.55
2023-04-07T14:36:06.508Z,2.35
2023-04-07T14:42:12.489Z,6.30
2023-04-07T14:48:17.184Z,2.95
2023-04-07T14:54:20.629Z,2.88
2023-04-07T15:00:26.190Z,4.03
2023-04-07T15:06:29.638Z,2.00
2023-04-07T15:12:33.470Z,1.38
2023-04-07T15:18:38.226Z,1.67
2023-04-07T15:24:41.617Z,3.08
2023-04-07T15:30:46.150Z,2.85
2023-04-07T15:36:53.139Z,1.92
2023-04-07T15:42:56.578Z,4.50
2023-04-07T15:49:00.137Z,3.38
2023-04-07T15:55:05.020Z,2.50
2023-04-07T16:01:08.450Z,3.55
2023-04-07T16:07:11.974Z,2.15
2023-04-07T16:13:16.940Z,2.22
2023-04-07T16:19:20.768Z,2.60
2023-04-07T16:25:24.212Z,5.25
2023-04-07T16:31:29.748Z,0.93
2023-04-07T16:37:33.209Z,3.67
2023-04-07T16:43:36.785Z,3.13
2023-04-07T16:49:41.577Z,4.97
2023-04-07T16:55:44.961Z,2.83
2023-04-07T17:01:48.469Z,3.50
2023-04-07T17:07:53.941Z,6.53
2023-04-07T17:13:58.813Z,4.47
2023-04-07T17:20:02.463Z,4.03
2023-04-07T17:26:07.328Z,1.83
2023-04-07T17:32:10.807Z,3.92
2023-04-07T17:38:14.390Z,2.63
2023-04-07T17:44:19.320Z,2.25
2023-04-07T17:50:22.885Z,3.17
2023-04-07T17:56:26.346Z,4.07
2023-04-07T18:02:31.324Z,3.83
2023-04-07T18:08:34.962Z,2.85
2023-04-07T18:14:38.652Z,3.25
2023-04-07T18:20:43.413Z,4.32
2023-04-07T18:26:46.971Z,2.95
2023-04-07T18:32:50.479Z,2.58
2023-04-07T18:38:55.601Z,2.70
2023-04-07T18:44:59.052Z,4.65
2023-04-07T18:51:02.455Z,3.65
2023-04-07T18:57:07.244Z,4.50
2023-04-07T19:03:10.905Z,4.75
2023-04-07T19:09:14.663Z,4.10
2023-04-07T19:15:19.533Z,7.90
2023-04-07T19:21:28.729Z,5.13
2023-04-07T19:27:32.514Z,6.43
2023-04-07T19:33:37.318Z,4.35
2023-04-07T19:39:44.906Z,5.93
2023-04-07T19:45:53.072Z,3.72
2023-04-07T19:51:57.924Z,4.43
2023-04-07T19:58:01.415Z,3.10
2023-04-07T20:04:05.047Z,3.95
2023-04-07T20:10:10.838Z,5.88
2023-04-07T20:16:14.414Z,4.93
2023-04-07T20:22:18.048Z,4.43
2023-04-07T20:28:23.020Z,5.78
2023-04-07T20:34:26.771Z,6.38
2023-04-07T20:40:31.749Z,4.35
2023-04-07T20:46:36.616Z,6.32
2023-04-07T20:52:43.489Z,5.70
2023-04-07T20:58:48.230Z,5.65
2023-04-07T21:04:53.141Z,6.05
2023-04-07T21:10:56.789Z,4.55
2023-04-07T21:17:00.235Z,8.02
2023-04-07T21:23:04.993Z,5.18
2023-04-07T21:29:08.466Z,6.55
2023-04-07T21:35:12.777Z,9.25
2023-04-07T21:41:17.564Z,4.20
2023-04-07T21:47:21.202Z,10.07
2023-04-07T21:53:24.614Z,4.60
2023-04-07T21:59:29.390Z,7.20
2023-04-07T22:05:32.795Z,6.78
2023-04-07T22:11:36.742Z,9.27
2023-04-07T22:17:41.761Z,6.20
2023-04-07T22:23:45.589Z,6.30
2023-04-07T22:29:49.133Z,6.85
2023-04-07T22:35:54.199Z,7.55
2023-04-07T22:41:57.594Z,7.43
2023-04-07T22:48:01.164Z,6.75
2023-04-07T22:54:06.190Z,7.80
2023-04-07T23:00:10.180Z,9.43
2023-04-07T23:06:13.655Z,5.03
2023-04-07T23:12:18.459Z,7.28
2023-04-07T23:18:21.836Z,8.20
2023-04-07T23:24:25.708Z,8.10
2023-04-07T23:30:30.556Z,6.35
2023-04-07T23:36:33.904Z,8.60
2023-04-07T23:42:37.859Z,8.43
2023-04-07T23:48:43.020Z,10.75
2023-04-07T23:54:46.434Z,8.00
